Time;durP1;ratioP1;P1;durP2;ratioP2;P2;SDS_P1;SDS_P2;PMS_P1;PMS_P2;Temp;Humidity;BMP_temperature;BMP_pressure;BME280_temperature;BME280_humidity;BME280_pressure;Samples;Min_cycle;Max_cycle;Signal;HPM_P1;HPM_P2
2022/07/04 00:00:17;;;;;;;8.85;5.05;;;;;;;21.80;55.53;94196.75;5143577;27;20094;-76
2022/07/04 00:02:44;;;;;;;9.77;4.72;;;;;;;21.83;55.04;94194.06;5125504;27;20229;-75
2022/07/04 00:05:10;;;;;;;6.32;4.75;;;;;;;21.91;53.72;94186.75;5143675;27;20038;-80
2022/07/04 00:07:39;;;;;;;11.90;4.45;;;;;;;21.93;53.95;94183.66;5143471;27;20091;-77
2022/07/04 00:10:06;;;;;;;21.92;4.30;;;;;;;21.96;52.98;94196.47;5143555;28;20023;-77
2022/07/04 00:12:31;;;;;;;8.10;4.35;;;;;;;21.94;53.09;94194.16;5143769;28;20095;-78
2022/07/04 00:14:57;;;;;;;10.10;5.45;;;;;;;21.98;53.91;94199.56;5146214;27;20027;-82
2022/07/04 00:17:22;;;;;;;8.50;4.40;;;;;;;21.96;54.22;94196.47;5148365;27;20201;-81
2022/07/04 00:19:48;;;;;;;10.40;5.00;;;;;;;21.98;54.03;94202.28;5148883;27;20370;-80
2022/07/04 00:22:13;;;;;;;10.27;4.57;;;;;;;21.95;53.89;94203.06;5149026;27;20023;-82
2022/07/04 00:24:38;;;;;;;8.25;3.85;;;;;;;21.94;54.16;94201.50;5148898;27;20027;-81
2022/07/04 00:27:04;;;;;;;7.90;4.43;;;;;;;21.93;54.47;94205.38;5148599;27;20019;-80
2022/07/04 00:29:30;;;;;;;6.55;3.78;;;;;;;21.85;54.64;94190.97;5148868;27;20031;-81
2022/07/04 00:31:55;;;;;;;7.00;3.65;;;;;;;21.82;54.84;94187.09;5148788;27;20079;-81
2022/07/04 00:34:21;;;;;;;8.90;3.72;;;;;;;21.78;55.27;94183.56;5148670;27;20026;-80
2022/07/04 00:36:47;;;;;;;14.00;4.30;;;;;;;21.72;55.37;94179.66;5148709;27;20374;-81
2022/07/04 00:39:12;;;;;;;11.43;4.43;;;;;;;21.68;56.17;94181.53;5148706;27;20030;-81
2022/07/04 00:41:38;;;;;;;7.30;4.25;;;;;;;21.64;56.01;94169.91;5148802;27;20095;-81
2022/07/04 00:44:06;;;;;;;6.65;4.30;;;;;;;21.57;56.16;94169.81;5148623;27;20057;-82
2022/07/04 00:46:32;;;;;;;7.82;4.47;;;;;;;21.48;55.74;94166.66;5148415;27;20023;-81
2022/07/04 00:48:58;;;;;;;9.85;4.28;;;;;;;21.43;55.36;94176.69;5147421;27;20034;-81
2022/07/04 00:51:24;;;;;;;14.40;4.05;;;;;;;21.34;55.34;94172.72;5129433;27;20377;-82
2022/07/04 00:53:52;;;;;;;7.90;4.07;;;;;;;21.29;55.25;94175.75;5148309;27;20027;-81
2022/07/04 00:56:17;;;;;;;6.18;3.22;;;;;;;21.23;54.40;94167.19;5147804;27;20132;-80
2022/07/04 00:58:43;;;;;;;5.40;3.90;;;;;;;21.14;54.50;94164.00;5148054;27;20042;-82
2022/07/04 01:01:09;;;;;;;7.78;3.78;;;;;;;21.07;56.15;94166.66;5147751;27;20030;-82
2022/07/04 01:03:34;;;;;;;5.25;4.18;;;;;;;21.01;56.38;94166.97;5147454;27;20094;-82
2022/07/04 01:06:00;;;;;;;7.90;4.18;;;;;;;20.99;57.05;94163.84;5147129;27;20019;-83
2022/07/04 01:08:26;;;;;;;8.52;4.40;;;;;;;20.95;57.85;94165.75;5147424;27;20221;-83
2022/07/04 01:10:52;;;;;;;6.45;4.35;;;;;;;20.97;58.30;94157.25;5147328;27;20038;-83
2022/07/04 01:13:22;;;;;;;9.00;4.70;;;;;;;20.92;58.12;94169.19;5147168;27;20026;-84
2022/07/04 01:15:50;;;;;;;22.63;4.30;;;;;;;20.90;58.26;94174.19;5147306;27;20027;-83
2022/07/04 01:18:16;;;;;;;7.60;4.47;;;;;;;20.82;58.82;94156.31;5146958;27;20037;-84
2022/07/04 01:20:42;;;;;;;9.25;5.32;;;;;;;20.76;59.15;94171.34;5147050;27;20190;-83
2022/07/04 01:23:07;;;;;;;7.45;5.25;;;;;;;20.72;59.83;94167.81;5128535;27;20030;-83
2022/07/04 01:25:33;;;;;;;7.60;5.47;;;;;;;20.63;59.80;94168.09;5146809;27;20050;-83
2022/07/04 01:28:02;;;;;;;8.52;5.50;;;;;;;20.61;60.70;94176.59;5147115;27;20220;-84
2022/07/04 01:30:29;;;;;;;7.57;5.60;;;;;;;20.56;60.69;94173.44;5146758;27;20305;-83
2022/07/04 01:32:54;;;;;;;12.90;5.10;;;;;;;20.55;60.25;94174.56;5128632;27;20027;-83
2022/07/04 01:35:20;;;;;;;12.75;5.03;;;;;;;20.45;60.66;94170.56;5146838;27;20313;-84
2022/07/04 01:37:46;;;;;;;7.95;4.57;;;;;;;20.33;60.04;94168.09;5146716;27;20393;-83
2022/07/04 01:40:13;;;;;;;10.20;5.18;;;;;;;20.28;59.82;94171.13;5146495;27;20015;-83
2022/07/04 01:42:39;;;;;;;9.63;5.18;;;;;;;20.24;59.37;94173.78;5146668;27;20403;-83
2022/07/04 01:45:05;;;;;;;12.10;4.85;;;;;;;20.21;59.92;94178.00;5146443;27;20019;-83
2022/07/04 01:47:31;;;;;;;8.05;5.38;;;;;;;20.17;61.08;94174.47;5146446;27;20190;-83
2022/07/04 01:49:56;;;;;;;9.50;5.78;;;;;;;20.12;61.24;94180.19;5146615;27;20019;-83
2022/07/04 01:52:22;;;;;;;10.85;4.82;;;;;;;20.12;61.13;94182.13;5146748;27;20015;-83
2022/07/04 01:54:50;;;;;;;7.97;4.63;;;;;;;20.12;60.38;94182.91;5147129;27;20355;-85
2022/07/04 01:57:15;;;;;;;11.60;4.82;;;;;;;20.10;59.91;94177.06;5146987;27;20227;-85
2022/07/04 02:02:25;;;;;;;9.18;5.43;;;;;;;20.07;59.30;94183.22;5146762;27;20068;-85
2022/07/04 02:04:51;;;;;;;10.40;5.25;;;;;;;20.06;59.48;94184.38;5146547;27;20023;-86
2022/07/04 02:07:16;;;;;;;10.55;5.20;;;;;;;20.09;59.98;94180.13;5146644;27;20042;-83
2022/07/04 02:09:42;;;;;;;8.45;4.93;;;;;;;20.01;60.41;94174.66;5146284;27;20019;-84
2022/07/04 02:14:52;;;;;;;9.82;5.60;;;;;;;19.97;61.30;94181.16;5146372;27;20022;-83
2022/07/04 02:17:18;;;;;;;7.88;5.72;;;;;;;19.93;61.66;94185.75;5146558;27;20019;-82
2022/07/04 02:19:43;;;;;;;10.85;5.35;;;;;;;19.88;61.20;94186.03;5146626;27;20273;-83
2022/07/04 02:22:09;;;;;;;7.93;5.32;;;;;;;19.83;60.90;94182.50;5146280;27;20090;-83
2022/07/04 02:24:35;;;;;;;10.82;4.95;;;;;;;19.81;60.99;94179.38;5127349;27;20023;-83
2022/07/04 02:27:02;;;;;;;12.93;6.30;;;;;;;19.81;61.79;94184.00;5145614;27;20364;-83
2022/07/04 02:29:28;;;;;;;6.07;5.03;;;;;;;19.77;61.67;94183.94;5145879;27;20424;-86
2022/07/04 02:31:53;;;;;;;17.17;5.50;;;;;;;19.76;62.39;94189.72;5145572;27;20112;-83
2022/07/04 02:34:19;;;;;;;15.23;6.28;;;;;;;19.74;62.58;94190.09;5145641;27;20038;-84
2022/07/04 02:36:45;;;;;;;9.15;6.07;;;;;;;19.71;62.50;94181.94;5145150;27;20019;-84
2022/07/04 02:39:10;;;;;;;9.18;5.63;;;;;;;19.71;62.48;94184.63;5145490;27;20030;-83
2022/07/04 02:41:36;;;;;;;8.90;5.65;;;;;;;19.68;62.37;94188.78;5145157;27;20264;-83
2022/07/04 02:44:02;;;;;;;15.10;5.50;;;;;;;19.68;62.36;94196.13;5145301;27;20045;-83
2022/07/04 02:46:27;;;;;;;6.25;5.03;;;;;;;19.67;62.17;94189.19;5145540;27;20056;-82
2022/07/04 02:48:53;;;;;;;8.88;5.43;;;;;;;19.68;62.11;94204.25;5145394;27;20019;-83
2022/07/04 02:51:18;;;;;;;6.95;5.22;;;;;;;19.62;61.90;94204.56;5145173;27;20317;-83
2022/07/04 02:53:44;;;;;;;14.80;5.60;;;;;;;19.62;61.66;94206.47;5145017;27;20019;-83
2022/07/04 02:56:09;;;;;;;11.07;5.65;;;;;;;19.60;61.37;94206.84;5145055;27;20026;-83
2022/07/04 02:58:35;;;;;;;7.32;5.28;;;;;;;19.53;61.16;94203.25;5145137;27;20072;-83
2022/07/04 03:01:00;;;;;;;8.05;5.00;;;;;;;19.45;61.38;94207.75;5145124;27;20027;-83
2022/07/04 03:03:27;;;;;;;8.00;5.35;;;;;;;19.42;61.33;94213.88;5145095;27;20023;-83
2022/07/04 03:05:53;;;;;;;8.27;4.80;;;;;;;19.37;61.53;94209.53;5144724;27;20217;-83
2022/07/04 03:08:18;;;;;;;7.22;4.72;;;;;;;19.34;61.80;94214.91;5144968;27;20019;-82
2022/07/04 03:10:44;;;;;;;11.95;4.28;;;;;;;19.26;61.11;94210.50;5145031;27;20213;-83
2022/07/04 03:13:10;;;;;;;7.53;4.20;;;;;;;19.19;61.00;94208.44;5144669;27;20305;-83
2022/07/04 03:15:35;;;;;;;7.97;4.18;;;;;;;19.12;60.65;94211.03;5145188;27;20019;-83
2022/07/04 03:18:01;;;;;;;7.82;4.57;;;;;;;19.08;61.13;94212.88;5145135;27;20027;-84
2022/07/04 03:20:26;;;;;;;6.97;4.60;;;;;;;19.09;62.14;94225.25;5144977;27;20267;-82
2022/07/04 03:22:54;;;;;;;9.90;5.43;;;;;;;19.13;62.05;94217.97;5144670;27;20328;-83
2022/07/04 03:25:20;;;;;;;11.15;4.22;;;;;;;19.12;60.81;94221.84;5144402;27;20392;-82
2022/07/04 03:27:45;;;;;;;10.55;4.43;;;;;;;19.12;60.58;94216.44;5144824;27;20015;-83
2022/07/04 03:30:11;;;;;;;8.30;3.72;;;;;;;19.12;60.93;94221.84;5144612;27;20630;-83
2022/07/04 03:32:36;;;;;;;8.95;4.78;;;;;;;19.15;59.81;94226.50;5144983;27;20039;-82
2022/07/04 03:35:02;;;;;;;6.55;3.90;;;;;;;19.18;60.10;94217.69;5144986;27;20011;-82
2022/07/04 03:37:28;;;;;;;6.07;4.13;;;;;;;19.23;61.02;94214.69;5144609;27;20019;-83
2022/07/04 03:39:53;;;;;;;10.63;3.88;;;;;;;19.31;61.78;94210.19;5144655;27;20015;-83
2022/07/04 03:42:19;;;;;;;7.10;3.33;;;;;;;19.34;60.84;94221.06;5144819;27;20046;-82
2022/07/04 03:44:44;;;;;;;7.07;3.50;;;;;;;19.38;58.90;94215.75;5144549;27;20251;-82
2022/07/04 03:47:10;;;;;;;5.78;3.85;;;;;;;19.44;58.89;94214.31;5144982;27;20019;-82
2022/07/04 03:49:35;;;;;;;8.07;3.78;;;;;;;19.52;59.31;94213.28;5144314;27;20022;-82
2022/07/04 03:52:00;;;;;;;6.25;3.40;;;;;;;19.62;58.91;94214.56;5144780;27;20327;-83
2022/07/04 03:54:28;;;;;;;5.70;3.63;;;;;;;19.70;58.37;94210.88;5144728;27;20019;-83
2022/07/04 03:56:54;;;;;;;6.97;3.67;;;;;;;19.74;57.51;94205.53;5144447;27;20015;-83
2022/07/04 03:59:19;;;;;;;9.63;4.00;;;;;;;19.75;57.87;94218.69;5144319;27;20202;-83
2022/07/04 04:01:45;;;;;;;5.88;3.72;;;;;;;19.84;58.37;94207.63;5144081;27;20019;-82
2022/07/04 04:06:54;;;;;;;9.35;3.95;;;;;;;19.90;57.70;94199.97;5144217;27;20086;-82
2022/07/04 04:09:20;;;;;;;5.68;3.70;;;;;;;19.93;57.75;94208.16;5144223;27;20325;-82
2022/07/04 04:11:46;;;;;;;5.20;3.50;;;;;;;19.99;57.46;94205.94;5144225;28;20027;-82
2022/07/04 04:14:12;;;;;;;8.05;4.00;;;;;;;20.03;57.46;94212.94;5144256;28;20019;-82
2022/07/04 04:16:37;;;;;;;8.23;4.53;;;;;;;20.05;58.74;94204.47;5143861;28;20225;-82
2022/07/04 04:19:03;;;;;;;12.32;4.72;;;;;;;20.11;59.43;94213.03;5144099;28;20019;-82
2022/07/04 04:21:28;;;;;;;14.50;5.03;;;;;;;20.13;59.63;94216.16;5144163;28;20023;-82
2022/07/04 04:23:54;;;;;;;8.10;4.38;;;;;;;20.15;59.08;94217.38;5143763;28;20042;-82
2022/07/04 04:26:19;;;;;;;9.52;4.65;;;;;;;20.17;59.15;94223.19;5125609;28;20075;-82
2022/07/04 04:28:45;;;;;;;12.35;4.95;;;;;;;20.10;59.78;94227.72;5143795;28;20027;-82
2022/07/04 04:31:10;;;;;;;10.35;4.45;;;;;;;19.97;59.83;94221.75;5143274;28;20376;-82
2022/07/04 04:33:36;;;;;;;10.50;4.18;;;;;;;20.00;59.96;94229.09;5143689;28;20019;-82
2022/07/04 04:36:01;;;;;;;13.13;5.15;;;;;;;20.02;60.68;94229.53;5143734;28;20026;-82
2022/07/04 04:38:27;;;;;;;6.07;4.35;;;;;;;20.00;60.57;94235.28;5143531;28;20023;-82
2022/07/04 04:40:52;;;;;;;18.83;6.38;;;;;;;20.03;59.20;94239.22;5143532;28;20205;-82
2022/07/04 04:43:18;;;;;;;7.53;4.40;;;;;;;20.10;58.38;94231.19;5143613;28;20042;-82
2022/07/04 04:45:43;;;;;;;12.98;4.78;;;;;;;20.17;59.59;94242.13;5143476;28;20023;-82
2022/07/04 04:48:09;;;;;;;11.57;4.78;;;;;;;20.24;58.62;94228.69;5143359;28;20221;-82
2022/07/04 04:50:35;;;;;;;10.07;4.78;;;;;;;20.26;57.79;94228.34;5143665;28;20034;-82
2022/07/04 04:53:01;;;;;;;10.68;4.15;;;;;;;20.32;56.67;94234.22;5143766;28;20023;-82
2022/07/04 04:55:27;;;;;;;15.70;4.30;;;;;;;20.40;57.78;94235.88;5125207;28;20340;-82
2022/07/04 04:57:52;;;;;;;13.68;4.75;;;;;;;20.44;57.16;94237.47;5143532;28;20019;-82
2022/07/04 05:00:18;;;;;;;12.50;4.07;;;;;;;20.52;56.15;94227.53;5144274;27;20063;-82
2022/07/04 05:02:44;;;;;;;9.75;3.80;;;;;;;20.55;55.88;94226.78;5129148;27;20026;-81
2022/07/04 05:05:10;;;;;;;7.53;3.92;;;;;;;20.54;54.98;94229.88;5146988;27;20374;-82
2022/07/04 05:07:35;;;;;;;25.02;4.55;;;;;;;20.59;55.29;94230.34;5147369;27;20019;-82
2022/07/04 05:10:02;;;;;;;9.85;4.30;;;;;;;20.56;55.14;94233.78;5148201;27;20019;-84
2022/07/04 05:12:27;;;;;;;17.27;4.32;;;;;;;20.63;56.61;94238.50;5147918;27;20026;-82
2022/07/04 05:14:54;;;;;;;13.40;4.38;;;;;;;20.69;55.05;94231.63;5147554;27;20018;-82
2022/07/04 05:17:19;;;;;;;12.07;4.03;;;;;;;20.76;54.95;94228.22;5148450;27;20023;-82
2022/07/04 05:19:45;;;;;;;11.02;4.22;;;;;;;20.86;52.82;94230.28;5148898;27;20019;-82
2022/07/04 05:22:10;;;;;;;11.73;3.80;;;;;;;20.82;51.50;94229.44;5148393;27;20216;-82
2022/07/04 05:24:39;;;;;;;18.90;4.50;;;;;;;20.92;53.79;94220.66;5147831;27;20198;-82
2022/07/04 05:27:05;;;;;;;12.20;3.97;;;;;;;20.96;53.69;94224.19;5147372;27;20057;-84
2022/07/04 05:29:31;;;;;;;24.77;4.57;;;;;;;21.02;51.93;94217.31;5147174;27;20034;-84
2022/07/04 05:31:57;;;;;;;13.88;3.80;;;;;;;21.10;52.44;94222.81;5147086;27;20247;-84
2022/07/04 05:34:22;;;;;;;12.93;4.05;;;;;;;21.22;51.34;94225.25;5146886;27;20026;-84
2022/07/04 05:36:47;;;;;;;11.60;4.30;;;;;;;21.26;51.09;94225.31;5146507;27;20101;-84
2022/07/04 05:39:13;;;;;;;7.93;3.92;;;;;;;21.40;51.16;94228.16;5146907;27;20068;-85
2022/07/04 05:41:38;;;;;;;6.85;4.22;;;;;;;21.46;51.65;94234.06;5146686;27;20332;-84
2022/07/04 05:44:04;;;;;;;12.05;3.60;;;;;;;21.42;52.25;94229.34;5147173;27;20248;-84
2022/07/04 05:46:30;;;;;;;16.63;4.22;;;;;;;21.53;51.52;94232.16;5147621;27;20026;-84
2022/07/04 05:48:56;;;;;;;10.68;3.53;;;;;;;21.57;53.12;94230.25;5147037;27;20066;-82
2022/07/04 05:51:21;;;;;;;18.35;4.53;;;;;;;21.62;53.06;94234.59;5147055;27;20027;-82
2022/07/04 05:53:47;;;;;;;9.25;3.53;;;;;;;21.70;50.57;94238.91;5146908;27;20026;-83
2022/07/04 05:56:12;;;;;;;5.72;3.42;;;;;;;21.76;49.85;94236.66;5146794;27;20062;-82
2022/07/04 05:58:38;;;;;;;10.45;3.22;;;;;;;21.80;49.44;94238.22;5146317;27;20060;-82
2022/07/04 06:01:04;;;;;;;12.38;4.05;;;;;;;21.91;49.88;94240.25;5146046;27;20026;-82
2022/07/04 06:03:30;;;;;;;9.45;4.07;;;;;;;21.95;49.34;94241.81;5146227;27;20321;-83
2022/07/04 06:05:55;;;;;;;12.20;4.22;;;;;;;21.94;49.92;94242.19;5146128;27;20067;-84
2022/07/04 06:08:21;;;;;;;8.90;4.07;;;;;;;22.04;49.89;94236.06;5146153;27;20313;-83
2022/07/04 06:10:47;;;;;;;25.52;3.72;;;;;;;22.18;50.28;94244.31;5146038;27;20030;-83
2022/07/04 06:13:13;;;;;;;7.18;3.83;;;;;;;22.36;49.95;94243.69;5145065;27;20046;-83
2022/07/04 06:15:39;;;;;;;8.07;3.67;;;;;;;22.52;50.43;94233.31;5145943;27;20314;-82
2022/07/04 06:18:04;;;;;;;10.70;3.97;;;;;;;22.61;49.29;94236.47;5146185;27;20023;-82
2022/07/04 06:20:30;;;;;;;11.43;4.35;;;;;;;22.74;49.38;94236.13;5145727;27;20226;-82
2022/07/04 06:22:56;;;;;;;7.60;3.95;;;;;;;22.89;48.88;94226.09;5145785;27;20031;-82
2022/07/04 06:25:22;;;;;;;9.68;3.33;;;;;;;22.97;49.29;94231.16;5145462;27;20027;-82
2022/07/04 06:27:49;;;;;;;11.40;3.65;;;;;;;22.89;49.30;94235.03;5145558;27;20067;-82
2022/07/04 06:30:16;;;;;;;10.70;4.20;;;;;;;22.91;47.94;94231.94;5145762;27;20219;-82
2022/07/04 06:32:52;;;;;;;12.15;3.95;;;;;;;22.97;48.68;94233.13;5145642;27;20034;-83
2022/07/04 06:35:47;;;;;;;16.60;4.30;;;;;;;22.95;48.16;94236.22;5145618;27;20041;-83
2022/07/04 06:38:16;;;;;;;9.90;3.97;;;;;;;22.99;49.28;94234.28;5145331;27;20023;-83
2022/07/04 06:40:42;;;;;;;8.98;4.28;;;;;;;22.97;47.79;94230.41;5145493;27;20015;-82
2022/07/04 06:43:08;;;;;;;9.55;4.38;;;;;;;23.00;49.26;94235.09;5145632;27;20062;-81
2022/07/04 06:45:34;;;;;;;12.30;3.90;;;;;;;23.10;49.09;94225.41;5145363;27;20086;-82
2022/07/04 06:48:04;;;;;;;12.45;3.58;;;;;;;23.25;48.61;94229.72;5145351;27;20072;-82
2022/07/04 06:50:32;;;;;;;14.15;4.82;;;;;;;23.40;48.77;94220.44;5145389;27;20277;-82
2022/07/04 06:53:09;;;;;;;9.32;4.35;;;;;;;23.57;48.55;94220.84;5127007;27;20018;-83
2022/07/04 06:55:38;;;;;;;9.15;3.92;;;;;;;23.66;47.79;94218.53;5144962;27;20043;-82
2022/07/04 06:58:05;;;;;;;11.68;4.97;;;;;;;23.69;46.50;94220.50;5145180;27;20056;-84
2022/07/04 07:00:30;;;;;;;14.43;3.78;;;;;;;23.73;46.79;94215.03;5145210;27;20090;-79
2022/07/04 07:02:58;;;;;;;11.57;3.97;;;;;;;23.74;47.72;94211.91;5145209;27;20187;-83
2022/07/04 07:05:24;;;;;;;13.90;3.80;;;;;;;23.85;47.25;94211.94;5144807;27;20031;-85
2022/07/04 07:07:50;;;;;;;7.32;4.13;;;;;;;23.97;46.72;94208.06;5144586;27;20030;-86
2022/07/04 07:10:16;;;;;;;13.00;3.45;;;;;;;24.10;45.98;94222.03;5145219;27;20026;-82
2022/07/04 07:12:42;;;;;;;11.50;3.70;;;;;;;24.21;46.01;94209.97;5145233;27;20214;-82
2022/07/04 07:15:08;;;;;;;16.30;5.70;;;;;;;24.33;45.70;94214.22;5144461;27;20043;-82
2022/07/04 07:17:34;;;;;;;9.80;4.15;;;;;;;24.40;45.17;94202.53;5144755;27;20201;-81
2022/07/04 07:20:00;;;;;;;14.15;4.10;;;;;;;24.55;44.58;94198.66;5144558;27;20127;-84
2022/07/04 07:22:25;;;;;;;10.32;5.43;;;;;;;24.69;45.26;94200.56;5144775;27;20043;-82
2022/07/04 07:24:51;;;;;;;10.05;3.50;;;;;;;24.79;44.45;94196.22;5125853;27;20221;-82
2022/07/04 07:27:16;;;;;;;10.50;4.15;;;;;;;24.92;44.26;94193.84;5144477;27;20023;-82
2022/07/04 07:29:42;;;;;;;12.07;3.92;;;;;;;24.98;43.47;94193.00;5144507;27;20103;-83
2022/07/04 07:32:07;;;;;;;10.68;3.58;;;;;;;25.00;42.75;94196.13;5144183;27;20026;-84
2022/07/04 07:34:35;;;;;;;7.55;4.25;;;;;;;25.09;43.12;94200.38;5144927;27;20019;-89
2022/07/04 07:37:00;;;;;;;9.27;3.80;;;;;;;25.08;43.00;94202.31;5145115;27;20019;-90
2022/07/04 07:39:26;;;;;;;13.48;3.55;;;;;;;25.14;43.71;94194.50;5145435;27;20206;-90
2022/07/04 07:41:51;;;;;;;14.77;4.20;;;;;;;25.23;43.51;94192.13;5123207;28;20063;-92
2022/07/04 07:44:17;;;;;;;19.30;5.20;;;;;;;25.31;42.73;94193.63;5123119;28;20049;-89
2022/07/04 07:46:42;;;;;;;33.55;4.65;;;;;;;25.42;44.14;94199.81;5123823;28;20099;-82
2022/07/04 07:49:08;;;;;;;13.98;4.00;;;;;;;25.40;43.42;94196.72;5123352;28;20364;-83
2022/07/04 07:51:33;;;;;;;14.52;3.75;;;;;;;25.40;42.66;94193.19;5123637;28;20061;-81
2022/07/04 07:53:59;;;;;;;22.45;4.10;;;;;;;25.42;42.63;94190.84;5123361;28;20032;-90
2022/07/04 07:56:25;;;;;;;10.10;3.90;;;;;;;25.48;43.48;94193.91;5123088;28;20034;-89
2022/07/04 07:58:51;;;;;;;19.52;4.60;;;;;;;25.54;44.03;94186.88;5124083;28;20366;-92
2022/07/04 08:01:17;;;;;;;11.55;4.65;;;;;;;25.64;43.64;94191.47;5123337;28;20023;-79
2022/07/04 08:06:26;;;;;;;13.07;4.18;;;;;;;25.77;42.61;94186.31;5123499;28;20204;-79
2022/07/04 08:08:52;;;;;;;13.32;4.00;;;;;;;25.90;41.97;94178.44;5123634;28;20023;-81
2022/07/04 08:11:18;;;;;;;12.18;4.32;;;;;;;25.95;41.68;94180.72;5123596;28;20031;-79
2022/07/04 08:13:43;;;;;;;12.35;3.85;;;;;;;25.88;41.90;94188.94;5123819;28;20218;-82
2022/07/04 08:16:09;;;;;;;10.32;4.05;;;;;;;25.89;41.65;94193.22;5123729;28;20274;-84
2022/07/04 08:18:35;;;;;;;9.60;4.22;;;;;;;25.90;40.78;94190.13;5124081;28;20030;-84
2022/07/04 08:21:02;;;;;;;17.48;4.90;;;;;;;25.99;42.60;94187.72;5123413;28;20058;-82
2022/07/04 08:23:29;;;;;;;9.30;3.80;;;;;;;25.96;41.32;94185.00;5123707;28;20225;-88
2022/07/04 08:25:54;;;;;;;7.00;4.40;;;;;;;25.99;41.64;94176.78;5124463;28;20035;-94
2022/07/04 08:28:20;;;;;;;7.78;3.78;;;;;;;26.09;42.26;94183.31;5124273;28;20024;-84
2022/07/04 08:30:45;;;;;;;13.02;4.07;;;;;;;26.20;41.45;94175.81;5124607;28;20032;-90
2022/07/04 08:33:11;;;;;;;9.70;3.90;;;;;;;26.31;40.64;94177.66;5124892;28;20051;-86
2022/07/04 08:35:36;;;;;;;13.02;4.45;;;;;;;26.39;41.24;94187.31;5124948;28;20027;-87
2022/07/04 08:38:05;;;;;;;9.60;4.43;;;;;;;26.50;40.60;94177.06;5127469;28;20329;-82
2022/07/04 08:40:31;;;;;;;18.13;4.88;;;;;;;26.63;41.29;94173.81;5127516;28;20080;-89
2022/07/04 08:42:57;;;;;;;11.95;4.45;;;;;;;26.76;41.44;94172.84;5140423;27;20050;-88
2022/07/04 08:45:32;;;;;;;9.07;4.50;;;;;;;26.90;40.77;94169.19;5149092;27;20041;-83
2022/07/04 08:48:06;;;;;;;9.32;4.70;;;;;;;27.02;40.82;94168.63;5147755;27;20302;-88
2022/07/04 08:50:34;;;;;;;7.40;4.45;;;;;;;27.17;40.81;94173.91;5148531;27;20023;-87
2022/07/04 08:53:06;;;;;;;13.95;4.78;;;;;;;27.33;41.40;94168.63;5130926;27;20023;-92
2022/07/04 08:58:25;;;;;;;12.00;4.10;;;;;;;27.55;40.74;94158.13;5147638;27;20403;-85
2022/07/04 09:00:54;;;;;;;14.23;5.25;;;;;;;27.67;41.07;94162.25;5147396;27;20206;-87
2022/07/04 09:03:21;;;;;;;7.28;4.13;;;;;;;27.71;40.35;94156.72;5147323;27;20019;-83
2022/07/04 09:05:47;;;;;;;11.35;4.68;;;;;;;27.83;40.58;94158.09;5147453;27;20027;-87
2022/07/04 09:08:12;;;;;;;12.68;4.90;;;;;;;27.86;40.89;94151.78;5129127;27;20022;-87
2022/07/04 09:10:38;;;;;;;8.18;4.05;;;;;;;27.94;40.96;94156.75;5147305;27;20075;-84
2022/07/04 09:13:09;;;;;;;13.05;4.43;;;;;;;28.04;39.90;94168.72;5147519;27;20015;-85
2022/07/04 09:15:35;;;;;;;11.07;4.38;;;;;;;28.17;39.53;94161.44;5148679;27;20098;-94
2022/07/04 09:18:01;;;;;;;17.00;5.53;;;;;;;28.23;39.13;94164.47;5147880;27;20221;-91
2022/07/04 09:20:28;;;;;;;11.32;4.80;;;;;;;28.34;40.01;94156.06;5147900;27;20090;-90
2022/07/04 09:22:54;;;;;;;8.18;3.88;;;;;;;28.39;39.07;94158.28;5129481;27;20019;-87
2022/07/04 09:25:22;;;;;;;10.77;4.80;;;;;;;28.46;39.35;94155.44;5146956;27;20923;-85
2022/07/04 09:27:49;;;;;;;11.85;4.25;;;;;;;28.54;37.73;94156.88;5147298;27;20037;-91
2022/07/04 09:30:17;;;;;;;6.90;5.18;;;;;;;28.57;36.94;94158.00;5147266;27;20099;-85
2022/07/04 09:32:44;;;;;;;10.65;4.28;;;;;;;28.64;38.03;94157.06;5147733;27;20083;-84
2022/07/04 09:35:12;;;;;;;12.18;4.25;;;;;;;28.70;37.69;94152.63;5147137;27;20027;-83
2022/07/04 09:37:45;;;;;;;11.85;4.32;;;;;;;28.79;37.39;94150.13;5146756;27;20086;-89
2022/07/04 09:40:25;;;;;;;7.40;4.25;;;;;;;28.86;37.26;94144.47;5146778;27;20019;-87
2022/07/04 09:42:52;;;;;;;6.45;3.75;;;;;;;28.93;38.21;94138.84;5147307;27;20271;-94
2022/07/04 09:45:19;;;;;;;8.23;4.32;;;;;;;28.95;38.50;94143.91;5147432;27;20103;-82
2022/07/04 09:47:46;;;;;;;9.25;4.28;;;;;;;29.05;38.25;94142.13;5145778;27;20086;-87
2022/07/04 09:50:14;;;;;;;9.63;4.53;;;;;;;28.92;37.98;94142.78;5148831;27;20068;-96
2022/07/04 09:53:00;;;;;;;10.07;4.35;;;;;;;28.73;39.35;94129.88;5147847;27;20026;-79
2022/07/04 09:55:31;;;;;;;14.25;3.95;;;;;;;28.78;39.54;94143.84;5145930;27;20015;-89
2022/07/04 09:58:02;;;;;;;6.30;4.27;;;;;;;28.69;38.48;94142.88;5146434;27;20033;-87
2022/07/04 10:00:36;;;;;;;7.00;4.43;;;;;;;28.72;39.59;94144.75;5146178;27;20057;-85
2022/07/04 10:03:37;;;;;;;9.93;4.60;;;;;;;28.68;39.51;94142.09;5146780;27;20038;-87
2022/07/04 10:06:11;;;;;;;5.55;4.15;;;;;;;28.73;39.56;94135.34;5146509;27;20221;-85
2022/07/04 10:08:38;;;;;;;30.35;6.68;;;;;;;28.89;39.23;94145.59;5128363;27;20309;-85
2022/07/04 10:11:04;;;;;;;7.35;4.50;;;;;;;29.06;39.80;94147.19;5146131;27;20046;-85
2022/07/04 10:13:30;;;;;;;6.53;4.43;;;;;;;29.21;38.71;94142.19;5127703;27;20283;-84
2022/07/04 10:15:57;;;;;;;7.63;4.50;;;;;;;29.33;38.41;94147.03;5146509;27;20049;-81
2022/07/04 10:18:23;;;;;;;8.68;4.20;;;;;;;29.43;38.11;94147.19;5145688;27;20281;-85
2022/07/04 10:20:50;;;;;;;7.90;4.00;;;;;;;29.55;38.42;94150.06;5145840;27;20026;-82
2022/07/04 10:23:17;;;;;;;12.50;4.20;;;;;;;29.68;37.64;94143.88;5146590;27;20023;-92
2022/07/04 10:25:48;;;;;;;4.57;3.05;;;;;;;29.83;37.25;94149.81;5145897;27;20046;-87
2022/07/04 10:28:15;;;;;;;5.22;3.05;;;;;;;29.95;36.83;94135.38;5145990;27;20027;-90
2022/07/04 10:30:41;;;;;;;7.00;4.18;;;;;;;29.94;35.88;94142.06;5145740;27;20031;-88
2022/07/04 10:33:11;;;;;;;8.23;3.70;;;;;;;30.09;36.11;94146.00;5146233;27;20033;-85
2022/07/04 10:35:50;;;;;;;6.63;3.45;;;;;;;30.09;35.23;94143.25;5146151;27;20019;-84
2022/07/04 10:38:20;;;;;;;11.05;4.25;;;;;;;30.17;35.06;94141.88;5145947;27;20030;-87
2022/07/04 10:40:56;;;;;;;4.88;3.47;;;;;;;30.27;35.56;94133.78;5145514;27;20021;-83
2022/07/04 10:43:31;;;;;;;9.38;4.50;;;;;;;30.22;34.39;94134.28;5145590;27;20047;-90
2022/07/04 10:46:16;;;;;;;8.60;3.72;;;;;;;30.04;34.78;94126.50;5127155;27;20081;-84
2022/07/04 10:49:14;;;;;;;11.23;4.13;;;;;;;30.12;36.07;94130.63;5147503;27;20039;-93
2022/07/04 10:51:45;;;;;;;14.73;4.30;;;;;;;30.27;35.94;94125.53;5124579;27;20034;-89
2022/07/04 10:54:30;;;;;;;10.07;3.95;;;;;;;30.46;35.11;94132.88;5146281;27;20044;-89
2022/07/04 10:57:16;;;;;;;7.90;4.13;;;;;;;30.50;34.13;94122.56;5146134;27;20084;-90
2022/07/04 11:00:06;;;;;;;7.80;4.05;;;;;;;30.55;33.53;94122.03;5145523;27;20102;-93
2022/07/04 11:02:32;;;;;;;5.97;3.75;;;;;;;30.66;34.36;94124.47;5146122;27;20023;-86
2022/07/04 11:05:06;;;;;;;12.32;4.53;;;;;;;30.76;34.17;94115.13;5145793;27;20027;-80
2022/07/04 11:07:37;;;;;;;12.38;4.35;;;;;;;30.93;33.88;94115.09;5128070;27;20023;-87
2022/07/04 11:10:21;;;;;;;7.88;4.25;;;;;;;30.98;32.23;94098.03;5147289;27;20377;-88
2022/07/04 11:12:53;;;;;;;6.82;4.45;;;;;;;30.95;32.94;94096.91;5145004;27;20027;-84
2022/07/04 11:15:40;;;;;;;15.85;6.45;;;;;;;30.94;33.21;94100.13;5144640;27;20324;-81
2022/07/04 11:18:12;;;;;;;8.73;4.65;;;;;;;31.11;32.95;94098.03;5143769;27;20027;-85
2022/07/04 11:20:43;;;;;;;7.68;4.65;;;;;;;31.32;32.15;94097.34;5143501;27;20045;-83
2022/07/04 11:23:11;;;;;;;10.50;4.27;;;;;;;31.46;31.70;94093.41;5143413;27;20099;-74
2022/07/04 11:25:38;;;;;;;7.40;4.20;;;;;;;31.56;31.65;94099.81;5142601;27;20317;-74
2022/07/04 11:28:31;;;;;;;11.25;4.32;;;;;;;31.60;31.71;94100.44;5142436;27;20023;-74
2022/07/04 11:30:58;;;;;;;18.15;4.90;;;;;;;31.75;31.94;94106.25;5142807;27;20019;-73
2022/07/04 11:33:26;;;;;;;7.85;4.72;;;;;;;31.85;31.23;94104.38;5143526;27;20039;-73
2022/07/04 11:36:19;;;;;;;9.68;4.32;;;;;;;31.92;30.71;94101.38;5144203;27;20021;-73
2022/07/04 11:38:53;;;;;;;10.20;4.50;;;;;;;32.05;31.44;94093.09;5144171;27;20027;-74
2022/07/04 11:47:02;;;;;;;18.15;5.20;;;;;;;32.29;30.92;94083.19;5143915;27;20047;-74
2022/07/04 11:49:27;;;;;;;15.77;4.28;;;;;;;32.43;32.08;94079.16;5144039;27;20027;-74